createdAt,value
2023-04-05T00:00:22.088Z,50.48
2023-04-05T00:05:29.651Z,51.18
2023-04-05T00:10:31.523Z,50.95
2023-04-05T00:15:33.176Z,51.19
2023-04-05T00:20:37.646Z,51.29
2023-04-05T00:25:38.986Z,51.62
2023-04-05T00:30:40.764Z,52.29
2023-04-05T00:35:42.293Z,52.34
2023-04-05T00:40:43.922Z,51.83
2023-04-05T00:45:45.967Z,52.07
2023-04-05T00:50:49.920Z,52.21
2023-04-05T00:55:54.441Z,52.20
2023-04-05T01:01:13.710Z,52.45
2023-04-05T01:06:37.688Z,52.90
2023-04-05T01:11:40.582Z,53.14
2023-04-05T01:16:41.940Z,53.56
2023-04-05T01:22:21.994Z,53.40
2023-04-05T01:27:41.624Z,53.53
2023-04-05T01:33:00.450Z,53.85
2023-04-05T01:38:04.499Z,54.35
2023-04-05T01:43:13.808Z,54.59
2023-04-05T01:48:16.002Z,54.91
2023-04-05T01:53:17.569Z,55.24
2023-04-05T01:58:18.989Z,55.23
2023-04-05T02:03:21.313Z,54.67
2023-04-05T02:08:22.741Z,55.29
2023-04-05T02:13:25.737Z,55.43
2023-04-05T02:18:32.880Z,54.71
2023-04-05T02:23:35.416Z,55.14
2023-04-05T02:28:37.054Z,55.08
2023-04-05T02:33:39.212Z,55.68
2023-04-05T02:38:40.974Z,55.04
2023-04-05T02:43:42.331Z,55.63
2023-04-05T02:48:45.462Z,55.51
2023-04-05T02:53:48.060Z,55.72
2023-04-05T02:58:49.511Z,55.58
2023-04-05T03:03:51.403Z,56.00
2023-04-05T03:08:53.738Z,55.90
2023-04-05T03:13:55.116Z,55.73
2023-04-05T03:18:57.079Z,55.71
2023-04-05T03:23:58.430Z,55.59
2023-04-05T03:28:59.869Z,55.83
2023-04-05T03:34:01.364Z,56.36
2023-04-05T03:39:02.725Z,56.19
2023-04-05T03:44:04.644Z,56.63
2023-04-05T03:49:07.253Z,56.90
2023-04-05T03:54:08.628Z,57.21
2023-04-05T03:59:10.203Z,56.62
2023-04-05T04:04:13.512Z,56.08
2023-04-05T04:09:14.870Z,56.85
2023-04-05T04:14:16.353Z,56.89
2023-04-05T04:19:18.561Z,56.81
2023-04-05T04:24:20.151Z,56.80
2023-04-05T04:29:30.925Z,57.40
2023-04-05T04:34:34.623Z,56.72
2023-04-05T04:39:39.643Z,57.03
2023-04-05T04:44:42.529Z,56.91
2023-04-05T04:49:43.946Z,57.43
2023-04-05T04:54:47.228Z,57.68
2023-04-05T04:59:48.614Z,57.93
2023-04-05T05:04:50.220Z,57.72
2023-04-05T05:09:52.412Z,57.39
2023-04-05T05:14:53.791Z,57.61
2023-04-05T05:19:56.415Z,58.05
2023-04-05T05:24:57.853Z,57.50
2023-04-05T05:29:59.630Z,57.57
2023-04-05T05:35:00.969Z,57.44
2023-04-05T05:40:03.297Z,57.28
2023-04-05T05:45:05.883Z,57.38
2023-04-05T05:50:09.103Z,57.46
2023-04-05T05:55:10.761Z,56.94
2023-04-05T06:00:12.749Z,57.04
2023-04-05T06:05:14.212Z,57.89
2023-04-05T06:10:15.599Z,57.33
2023-04-05T06:15:17.078Z,57.73
2023-04-05T06:20:18.492Z,57.08
2023-04-05T06:25:19.903Z,57.65
2023-04-05T06:30:21.371Z,57.62
2023-04-05T06:35:23.637Z,57.30
2023-04-05T06:40:25.213Z,57.58
2023-04-05T06:45:26.547Z,57.50
2023-04-05T06:50:27.916Z,57.49
2023-04-05T06:55:29.776Z,57.29
2023-04-05T07:00:31.450Z,57.17
2023-04-05T07:05:33.025Z,57.45
2023-04-05T07:10:34.506Z,56.92
2023-04-05T07:15:35.973Z,56.65
2023-04-05T07:20:37.896Z,56.50
2023-04-05T07:25:42.090Z,55.70
2023-04-05T07:30:43.850Z,55.74
2023-04-05T07:35:45.341Z,55.02
2023-04-05T07:40:50.953Z,54.71
2023-04-05T07:46:00.611Z,54.13
2023-04-05T07:51:09.881Z,53.81
2023-04-05T07:56:12.374Z,53.11
2023-04-05T08:01:13.757Z,51.74
2023-04-05T08:06:19.331Z,51.55
2023-04-05T08:11:21.566Z,51.43
2023-04-05T08:16:23.020Z,50.16
2023-04-05T08:21:24.453Z,49.58
2023-04-05T08:26:25.871Z,49.56
2023-04-05T08:31:27.336Z,48.73
2023-04-05T08:36:28.906Z,48.66
2023-04-05T08:41:40.858Z,47.83
2023-04-05T08:46:44.014Z,47.63
2023-04-05T08:51:45.408Z,46.76
2023-04-05T08:56:49.154Z,45.91
2023-04-05T09:01:51.544Z,46.05
2023-04-05T09:06:57.446Z,44.94
2023-04-05T09:11:59.406Z,45.08
2023-04-05T09:17:04.383Z,43.95
2023-04-05T09:22:08.614Z,43.18
2023-04-05T09:27:11.795Z,42.54
2023-04-05T09:32:15.293Z,41.69
2023-04-05T09:37:21.758Z,41.50
2023-04-05T09:42:23.459Z,41.36
2023-04-05T09:47:31.001Z,40.82
2023-04-05T09:52:33.098Z,40.39
2023-04-05T09:57:37.001Z,39.76
2023-04-05T10:02:39.922Z,39.79
2023-04-05T10:07:45.236Z,39.05
2023-04-05T10:12:48.007Z,38.42
2023-04-05T10:17:53.242Z,37.85
2023-04-05T10:23:13.235Z,37.27
2023-04-05T10:28:35.114Z,36.76
2023-04-05T10:33:47.561Z,36.72
2023-04-05T10:39:00.131Z,35.85
2023-04-05T10:44:09.199Z,35.73
2023-04-05T10:49:29.185Z,34.85
2023-04-05T10:54:36.559Z,34.96
2023-04-05T10:59:43.779Z,34.04
2023-04-05T11:04:45.523Z,33.83
2023-04-05T11:10:04.303Z,33.39
2023-04-05T11:15:30.080Z,33.10
2023-04-05T11:20:41.479Z,32.62
2023-04-05T11:25:50.481Z,32.25
2023-04-05T11:30:56.463Z,31.98
2023-04-05T11:36:02.896Z,33.11
2023-04-05T11:41:12.445Z,32.64
2023-04-05T11:46:15.507Z,31.99
2023-04-05T11:51:20.476Z,31.25
2023-04-05T11:56:22.199Z,30.75
2023-04-05T12:01:23.526Z,30.25
2023-04-05T12:06:26.118Z,30.50
2023-04-05T12:11:30.915Z,30.27
2023-04-05T12:16:32.343Z,29.92
2023-04-05T12:21:33.797Z,29.64
2023-04-05T12:26:35.758Z,28.86
2023-04-05T12:31:50.318Z,29.08
2023-04-05T12:36:52.294Z,28.10
2023-04-05T12:41:58.924Z,27.17
2023-04-05T12:47:09.058Z,26.38
2023-04-05T12:52:11.503Z,26.84
2023-04-05T12:57:14.205Z,26.59
2023-04-05T13:02:15.614Z,25.82
2023-04-05T13:07:17.040Z,25.52
2023-04-05T13:12:18.454Z,25.63
2023-04-05T13:17:19.880Z,25.09
2023-04-05T13:22:21.440Z,24.59
2023-04-05T13:27:22.910Z,24.65
2023-04-05T13:32:24.432Z,24.78
2023-04-05T13:37:26.394Z,24.47
2023-04-05T13:42:27.924Z,24.13
2023-04-05T13:47:29.284Z,23.61
2023-04-05T13:52:30.672Z,23.60
2023-04-05T13:57:32.367Z,23.45
2023-04-05T14:02:34.034Z,23.31
2023-04-05T14:07:35.777Z,23.06
2023-04-05T14:12:37.160Z,23.27
2023-04-05T14:17:38.623Z,22.79
2023-04-05T14:22:40.248Z,22.28
2023-04-05T14:27:42.392Z,22.56
2023-04-05T14:32:45.171Z,22.34
2023-04-05T14:37:46.525Z,21.98
2023-04-05T14:42:50.166Z,21.80
2023-04-05T14:47:51.813Z,19.82
2023-04-05T14:52:53.698Z,19.36
2023-04-05T14:57:55.220Z,19.01
2023-04-05T15:02:56.658Z,18.68
2023-04-05T15:07:58.039Z,19.22
2023-04-05T15:12:59.388Z,19.81
2023-04-05T15:18:01.340Z,20.29
2023-04-05T15:23:02.875Z,20.70
2023-04-05T15:28:06.731Z,20.43
2023-04-05T15:33:08.455Z,20.21
2023-04-05T15:38:09.844Z,19.70
2023-04-05T15:43:11.296Z,20.02
2023-04-05T15:48:15.717Z,20.16
2023-04-05T15:53:17.235Z,20.36
2023-04-05T15:58:18.575Z,20.42
2023-04-05T16:03:19.989Z,20.80
2023-04-05T16:08:21.360Z,20.89
2023-04-05T16:13:23.232Z,20.98
2023-04-05T16:18:25.917Z,20.99
2023-04-05T16:23:27.330Z,20.77
2023-04-05T16:28:28.787Z,21.04
2023-04-05T16:33:30.322Z,20.65
2023-04-05T16:38:31.682Z,20.70
2023-04-05T16:43:33.053Z,20.59
2023-04-05T16:48:34.493Z,20.64
2023-04-05T16:53:35.881Z,20.49
2023-04-05T16:58:37.251Z,20.93
2023-04-05T17:03:38.708Z,20.78
2023-04-05T17:08:40.293Z,20.54
2023-04-05T17:13:41.966Z,21.09
2023-04-05T17:18:43.329Z,21.98
2023-04-05T17:23:44.785Z,22.19
2023-04-05T17:28:46.135Z,22.63
2023-04-05T17:33:48.797Z,23.06
2023-04-05T17:38:50.656Z,23.24
2023-04-05T17:43:52.016Z,23.49
2023-04-05T17:48:54.023Z,24.28
2023-04-05T17:53:57.373Z,24.35
2023-04-05T17:58:58.746Z,24.96
2023-04-05T18:04:01.053Z,25.52
2023-04-05T18:09:03.440Z,25.67
2023-04-05T18:14:05.448Z,26.63
2023-04-05T18:19:07.418Z,27.20
2023-04-05T18:24:10.560Z,28.13
2023-04-05T18:29:12.280Z,28.82
2023-04-05T18:34:13.733Z,29.14
2023-04-05T18:39:16.215Z,29.73
2023-04-05T18:44:17.551Z,30.90
2023-04-05T18:49:19.047Z,31.25
2023-04-05T18:54:20.850Z,31.63
2023-04-05T18:59:22.772Z,31.85
2023-04-05T19:04:24.182Z,32.62
2023-04-05T19:09:26.503Z,33.23
2023-04-05T19:14:27.853Z,33.44
2023-04-05T19:19:29.241Z,34.74
2023-04-05T19:24:30.769Z,34.99
2023-04-05T19:29:34.473Z,35.50
2023-04-05T19:34:37.578Z,35.63
2023-04-05T19:39:39.449Z,35.81
2023-04-05T19:44:46.532Z,36.37
2023-04-05T19:49:51.920Z,36.72
2023-04-05T19:54:53.290Z,36.97
2023-04-05T19:59:54.687Z,37.15
2023-04-05T20:04:56.151Z,37.77
2023-04-05T20:09:57.545Z,38.21
2023-04-05T20:14:58.891Z,38.39
2023-04-05T20:20:01.392Z,38.36
2023-04-05T20:25:38.923Z,38.96
2023-04-05T20:30:40.353Z,39.00
2023-04-05T20:40:43.074Z,39.19
2023-04-05T20:45:44.445Z,39.54
2023-04-05T20:50:46.169Z,39.68
2023-04-05T20:55:50.427Z,40.79
2023-04-05T21:00:52.332Z,40.74
2023-04-05T21:05:53.859Z,41.47
2023-04-05T21:10:55.557Z,42.05
2023-04-05T21:15:57.895Z,42.42
2023-04-05T21:21:00.293Z,42.99
2023-04-05T21:26:02.204Z,43.42
2023-04-05T21:31:03.665Z,43.66
2023-04-05T21:36:05.153Z,43.99
2023-04-05T21:41:06.622Z,44.69
2023-04-05T21:46:08.134Z,44.94
2023-04-05T21:51:09.486Z,45.03
2023-04-05T21:56:10.918Z,45.62
2023-04-05T22:01:13.430Z,45.76
2023-04-05T22:06:14.788Z,46.24
2023-04-05T22:11:16.153Z,46.42
2023-04-05T22:16:17.649Z,46.36
2023-04-05T22:21:19.017Z,46.04
2023-04-05T22:26:20.760Z,46.82
2023-04-05T22:31:22.196Z,46.97
2023-04-05T22:36:23.706Z,47.18
2023-04-05T22:41:25.031Z,47.13
2023-04-05T22:46:27.521Z,47.82
2023-04-05T22:51:28.924Z,47.58
2023-04-05T22:56:31.474Z,48.10
2023-04-05T23:01:32.846Z,48.27
2023-04-05T23:06:34.195Z,48.77
2023-04-05T23:11:35.597Z,49.68
2023-04-05T23:16:36.955Z,49.37
2023-04-05T23:21:38.302Z,49.10
2023-04-05T23:26:39.650Z,49.05
2023-04-05T23:31:42.068Z,49.19
2023-04-05T23:36:43.506Z,49.18
2023-04-05T23:41:44.863Z,50.24
2023-04-05T23:46:46.698Z,50.19
2023-04-05T23:51:48.145Z,50.04
2023-04-05T23:56:49.589Z,49.52
